sensor_id;sensor_type;location;lat;lon;timestamp;pressure;altitude;pressure_sealevel;temperature;humidity
10706;BME280;5404;42.656;23.336;2022-07-29T00:01:06;95040.28;;;19.63;100.00
10706;BME280;5404;42.656;23.336;2022-07-29T00:03:32;95040.03;;;19.68;100.00
10706;BME280;5404;42.656;23.336;2022-07-29T00:05:58;95045.91;;;19.70;100.00
10706;BME280;5404;42.656;23.336;2022-07-29T00:08:23;95056.00;;;19.73;100.00
10706;BME280;5404;42.656;23.336;2022-07-29T00:10:49;95053.41;;;19.77;100.00
10706;BME280;5404;42.656;23.336;2022-07-29T00:13:14;95056.91;;;19.77;100.00
10706;BME280;5404;42.656;23.336;2022-07-29T00:15:40;95062.06;;;19.82;100.00
10706;BME280;5404;42.656;23.336;2022-07-29T00:18:05;95058.56;;;19.82;100.00
10706;BME280;5404;42.656;23.336;2022-07-29T00:20:31;95061.81;;;19.87;100.00
10706;BME280;5404;42.656;23.336;2022-07-29T00:22:57;95053.25;;;19.85;100.00
10706;BME280;5404;42.656;23.336;2022-07-29T00:25:22;95060.31;;;19.74;100.00
10706;BME280;5404;42.656;23.336;2022-07-29T00:27:48;95066.63;;;19.66;100.00
10706;BME280;5404;42.656;23.336;2022-07-29T00:30:13;95067.44;;;19.66;100.00
10706;BME280;5404;42.656;23.336;2022-07-29T00:32:39;95053.72;;;19.59;100.00
10706;BME280;5404;42.656;23.336;2022-07-29T00:35:05;95053.66;;;19.44;100.00
10706;BME280;5404;42.656;23.336;2022-07-29T00:37:50;95060.56;;;19.41;100.00
10706;BME280;5404;42.656;23.336;2022-07-29T00:40:15;95065.16;;;19.41;100.00
10706;BME280;5404;42.656;23.336;2022-07-29T00:42:45;95065.84;;;19.38;100.00
10706;BME280;5404;42.656;23.336;2022-07-29T00:45:11;95044.06;;;19.07;100.00
10706;BME280;5404;42.656;23.336;2022-07-29T00:47:36;95081.53;;;19.20;100.00
10706;BME280;5404;42.656;23.336;2022-07-29T00:50:04;95086.94;;;19.20;100.00
10706;BME280;5404;42.656;23.336;2022-07-29T00:52:30;95086.56;;;19.22;100.00
10706;BME280;5404;42.656;23.336;2022-07-29T00:54:56;95092.81;;;19.10;100.00
10706;BME280;5404;42.656;23.336;2022-07-29T00:57:21;95083.69;;;19.03;100.00
10706;BME280;5404;42.656;23.336;2022-07-29T00:59:47;95088.41;;;19.06;100.00
10706;BME280;5404;42.656;23.336;2022-07-29T01:02:12;95089.44;;;19.01;100.00
10706;BME280;5404;42.656;23.336;2022-07-29T01:04:38;95095.66;;;18.90;100.00
10706;BME280;5404;42.656;23.336;2022-07-29T01:07:04;95079.56;;;18.93;100.00
10706;BME280;5404;42.656;23.336;2022-07-29T01:09:32;95090.00;;;18.95;100.00
10706;BME280;5404;42.656;23.336;2022-07-29T01:11:58;95097.78;;;18.96;100.00
10706;BME280;5404;42.656;23.336;2022-07-29T01:14:24;95084.41;;;18.76;100.00
10706;BME280;5404;42.656;23.336;2022-07-29T01:17:02;95092.63;;;18.79;100.00
10706;BME280;5404;42.656;23.336;2022-07-29T01:22:35;95100.59;;;18.76;100.00
10706;BME280;5404;42.656;23.336;2022-07-29T01:25:12;95099.81;;;18.63;100.00
10706;BME280;5404;42.656;23.336;2022-07-29T01:30:27;95096.75;;;18.65;100.00
10706;BME280;5404;42.656;23.336;2022-07-29T01:32:59;95031.09;;;18.24;100.00
10706;BME280;5404;42.656;23.336;2022-07-29T01:35:29;95085.63;;;18.66;100.00
10706;BME280;5404;42.656;23.336;2022-07-29T01:38:10;95090.72;;;18.68;100.00
10706;BME280;5404;42.656;23.336;2022-07-29T01:40:46;95089.69;;;18.72;100.00
10706;BME280;5404;42.656;23.336;2022-07-29T01:43:16;95081.47;;;18.69;100.00
10706;BME280;5404;42.656;23.336;2022-07-29T01:45:43;95089.47;;;18.77;100.00
10706;BME280;5404;42.656;23.336;2022-07-29T01:48:15;95096.41;;;18.78;100.00
10706;BME280;5404;42.656;23.336;2022-07-29T01:51:08;95096.66;;;18.73;100.00
10706;BME280;5404;42.656;23.336;2022-07-29T01:53:43;95100.38;;;18.69;100.00
10706;BME280;5404;42.656;23.336;2022-07-29T01:56:12;95096.75;;;18.65;100.00
10706;BME280;5404;42.656;23.336;2022-07-29T01:58:40;95097.91;;;18.64;100.00
10706;BME280;5404;42.656;23.336;2022-07-29T02:01:08;95094.50;;;18.54;100.00
10706;BME280;5404;42.656;23.336;2022-07-29T02:03:36;95092.97;;;18.53;100.00
10706;BME280;5404;42.656;23.336;2022-07-29T02:06:04;95098.69;;;18.52;100.00
10706;BME280;5404;42.656;23.336;2022-07-29T02:08:33;95096.00;;;18.52;100.00
10706;BME280;5404;42.656;23.336;2022-07-29T02:11:00;95084.19;;;18.56;100.00
10706;BME280;5404;42.656;23.336;2022-07-29T02:13:28;95093.63;;;18.63;100.00
10706;BME280;5404;42.656;23.336;2022-07-29T02:15:55;95096.75;;;18.65;100.00
10706;BME280;5404;42.656;23.336;2022-07-29T02:18:23;95091.25;;;18.61;100.00
10706;BME280;5404;42.656;23.336;2022-07-29T02:20:52;95093.94;;;18.49;100.00
10706;BME280;5404;42.656;23.336;2022-07-29T02:23:21;95094.28;;;18.47;100.00
10706;BME280;5404;42.656;23.336;2022-07-29T02:25:56;95090.47;;;18.48;100.00
10706;BME280;5404;42.656;23.336;2022-07-29T02:28:26;95093.94;;;18.61;100.00
10706;BME280;5404;42.656;23.336;2022-07-29T02:30:55;95094.19;;;18.56;100.00
10706;BME280;5404;42.656;23.336;2022-07-29T02:33:23;95079.22;;;18.46;100.00
10706;BME280;5404;42.656;23.336;2022-07-29T02:35:50;95078.84;;;18.36;100.00
10706;BME280;5404;42.656;23.336;2022-07-29T02:38:18;95077.88;;;18.40;100.00
10706;BME280;5404;42.656;23.336;2022-07-29T02:41:07;95076.66;;;18.50;100.00
10706;BME280;5404;42.656;23.336;2022-07-29T02:43:37;95078.91;;;18.60;100.00
10706;BME280;5404;42.656;23.336;2022-07-29T02:46:13;95067.41;;;18.63;100.00
10706;BME280;5404;42.656;23.336;2022-07-29T02:48:58;95065.06;;;18.74;100.00
10706;BME280;5404;42.656;23.336;2022-07-29T02:51:32;95054.38;;;18.65;100.00
10706;BME280;5404;42.656;23.336;2022-07-29T02:54:01;95057.97;;;18.69;100.00
10706;BME280;5404;42.656;23.336;2022-07-29T02:56:32;95055.72;;;18.71;100.00
10706;BME280;5404;42.656;23.336;2022-07-29T02:59:06;95052.69;;;18.73;100.00
10706;BME280;5404;42.656;23.336;2022-07-29T03:01:34;95049.44;;;18.67;100.00
10706;BME280;5404;42.656;23.336;2022-07-29T03:04:03;95049.66;;;18.74;100.00
10706;BME280;5404;42.656;23.336;2022-07-29T03:06:30;95043.00;;;18.72;100.00
10706;BME280;5404;42.656;23.336;2022-07-29T03:08:57;95047.72;;;18.75;100.00
10706;BME280;5404;42.656;23.336;2022-07-29T03:11:24;95041.91;;;18.73;100.00
10706;BME280;5404;42.656;23.336;2022-07-29T03:13:50;95044.59;;;18.73;100.00
10706;BME280;5404;42.656;23.336;2022-07-29T03:16:16;95050.31;;;18.83;100.00
10706;BME280;5404;42.656;23.336;2022-07-29T03:18:43;95044.22;;;18.86;100.00
10706;BME280;5404;42.656;23.336;2022-07-29T03:21:08;95050.75;;;18.85;100.00
10706;BME280;5404;42.656;23.336;2022-07-29T03:23:34;95047.28;;;18.85;100.00
10706;BME280;5404;42.656;23.336;2022-07-29T03:25:59;95051.09;;;18.84;100.00
10706;BME280;5404;42.656;23.336;2022-07-29T03:28:25;95059.53;;;18.82;100.00
10706;BME280;5404;42.656;23.336;2022-07-29T03:30:52;95066.31;;;18.76;100.00
10706;BME280;5404;42.656;23.336;2022-07-29T03:33:18;95067.19;;;18.68;100.00
10706;BME280;5404;42.656;23.336;2022-07-29T03:35:44;95072.59;;;18.56;100.00
10706;BME280;5404;42.656;23.336;2022-07-29T03:38:09;95069.25;;;18.59;100.00
10706;BME280;5404;42.656;23.336;2022-07-29T03:40:42;95075.41;;;18.59;100.00
10706;BME280;5404;42.656;23.336;2022-07-29T03:43:11;95078.91;;;18.48;100.00
10706;BME280;5404;42.656;23.336;2022-07-29T03:45:38;95081.59;;;18.48;100.00
10706;BME280;5404;42.656;23.336;2022-07-29T03:48:10;95082.03;;;18.50;100.00
10706;BME280;5404;42.656;23.336;2022-07-29T03:50:39;95084.97;;;18.45;100.00
10706;BME280;5404;42.656;23.336;2022-07-29T03:53:05;95082.50;;;18.52;100.00
10706;BME280;5404;42.656;23.336;2022-07-29T03:55:36;95089.34;;;18.62;100.00
10706;BME280;5404;42.656;23.336;2022-07-29T03:58:03;95072.59;;;18.68;100.00
10706;BME280;5404;42.656;23.336;2022-07-29T04:00:29;95095.09;;;18.84;100.00
10706;BME280;5404;42.656;23.336;2022-07-29T04:02:56;95091.34;;;18.89;100.00
10706;BME280;5404;42.656;23.336;2022-07-29T04:05:22;95093.06;;;18.81;100.00
10706;BME280;5404;42.656;23.336;2022-07-29T04:07:48;95090.03;;;18.83;100.00
10706;BME280;5404;42.656;23.336;2022-07-29T04:10:14;95088.66;;;18.89;100.00
10706;BME280;5404;42.656;23.336;2022-07-29T04:12:41;95091.78;;;19.03;100.00
10706;BME280;5404;42.656;23.336;2022-07-29T04:15:07;95086.59;;;19.10;100.00
10706;BME280;5404;42.656;23.336;2022-07-29T04:17:32;95086.56;;;19.22;100.00
10706;BME280;5404;42.656;23.336;2022-07-29T04:19:58;95082.72;;;19.35;100.00
10706;BME280;5404;42.656;23.336;2022-07-29T04:22:23;95080.09;;;19.50;100.00
10706;BME280;5404;42.656;23.336;2022-07-29T04:24:49;95079.03;;;19.67;100.00
10706;BME280;5404;42.656;23.336;2022-07-29T04:27:14;95069.28;;;19.78;100.00
10706;BME280;5404;42.656;23.336;2022-07-29T04:29:40;95069.56;;;19.89;100.00
10706;BME280;5404;42.656;23.336;2022-07-29T04:32:05;95060.59;;;19.85;100.00
10706;BME280;5404;42.656;23.336;2022-07-29T04:34:31;95055.78;;;19.94;100.00
10706;BME280;5404;42.656;23.336;2022-07-29T04:36:57;95048.75;;;20.05;100.00
10706;BME280;5404;42.656;23.336;2022-07-29T04:39:22;95053.31;;;20.16;100.00
10706;BME280;5404;42.656;23.336;2022-07-29T04:41:48;95049.38;;;20.14;100.00
10706;BME280;5404;42.656;23.336;2022-07-29T04:44:14;95051.78;;;20.31;100.00
10706;BME280;5404;42.656;23.336;2022-07-29T04:46:39;95058.75;;;20.47;100.00
10706;BME280;5404;42.656;23.336;2022-07-29T04:49:05;95047.38;;;20.57;100.00
10706;BME280;5404;42.656;23.336;2022-07-29T04:51:30;95047.47;;;20.45;100.00
10706;BME280;5404;42.656;23.336;2022-07-29T04:53:56;95049.66;;;20.40;100.00
10706;BME280;5404;42.656;23.336;2022-07-29T04:56:22;95049.75;;;20.43;100.00
10706;BME280;5404;42.656;23.336;2022-07-29T04:58:47;95050.97;;;20.46;100.00
10706;BME280;5404;42.656;23.336;2022-07-29T05:01:13;95050.69;;;20.66;100.00
10706;BME280;5404;42.656;23.336;2022-07-29T05:03:39;95046.22;;;20.90;100.00
10706;BME280;5404;42.656;23.336;2022-07-29T05:06:06;95046.97;;;20.90;100.00
10706;BME280;5404;42.656;23.336;2022-07-29T05:08:31;95043.53;;;20.93;100.00
10706;BME280;5404;42.656;23.336;2022-07-29T05:10:57;95029.22;;;21.08;100.00
10706;BME280;5404;42.656;23.336;2022-07-29T05:13:22;95030.13;;;21.16;100.00
10706;BME280;5404;42.656;23.336;2022-07-29T05:15:48;95029.53;;;21.22;100.00
10706;BME280;5404;42.656;23.336;2022-07-29T05:18:13;95030.22;;;21.19;100.00
10706;BME280;5404;42.656;23.336;2022-07-29T05:20:39;95045.00;;;21.22;100.00
10706;BME280;5404;42.656;23.336;2022-07-29T05:23:05;95035.72;;;21.23;100.00
10706;BME280;5404;42.656;23.336;2022-07-29T05:25:30;95035.94;;;21.33;100.00
10706;BME280;5404;42.656;23.336;2022-07-29T05:27:56;95034.09;;;21.37;100.00
10706;BME280;5404;42.656;23.336;2022-07-29T05:30:23;95022.75;;;21.32;100.00
10706;BME280;5404;42.656;23.336;2022-07-29T05:32:49;95030.59;;;21.56;100.00
10706;BME280;5404;42.656;23.336;2022-07-29T05:35:15;95025.09;;;21.52;100.00
10706;BME280;5404;42.656;23.336;2022-07-29T05:37:40;95025.81;;;21.68;100.00
10706;BME280;5404;42.656;23.336;2022-07-29T05:40:07;95014.88;;;21.65;100.00
10706;BME280;5404;42.656;23.336;2022-07-29T05:42:33;95015.59;;;21.81;100.00
10706;BME280;5404;42.656;23.336;2022-07-29T05:45:00;95010.34;;;21.91;100.00
10706;BME280;5404;42.656;23.336;2022-07-29T05:47:26;95017.84;;;21.98;100.00
10706;BME280;5404;42.656;23.336;2022-07-29T05:49:51;95025.56;;;21.96;100.00
10706;BME280;5404;42.656;23.336;2022-07-29T05:52:17;95022.50;;;21.98;100.00
10706;BME280;5404;42.656;23.336;2022-07-29T05:54:43;95019.56;;;22.06;100.00
10706;BME280;5404;42.656;23.336;2022-07-29T05:57:14;95023.53;;;22.12;100.00
10706;BME280;5404;42.656;23.336;2022-07-29T05:59:40;95021.34;;;22.21;100.00
10706;BME280;5404;42.656;23.336;2022-07-29T06:02:05;95018.94;;;22.16;100.00
10706;BME280;5404;42.656;23.336;2022-07-29T06:04:31;95019.72;;;22.39;100.00
10706;BME280;5404;42.656;23.336;2022-07-29T06:06:57;95010.00;;;22.61;100.00
10706;BME280;5404;42.656;23.336;2022-07-29T06:09:23;95009.31;;;22.67;100.00
10706;BME280;5404;42.656;23.336;2022-07-29T06:11:48;94992.34;;;22.51;100.00
10706;BME280;5404;42.656;23.336;2022-07-29T06:14:14;94994.91;;;22.63;100.00
10706;BME280;5404;42.656;23.336;2022-07-29T06:16:39;94994.91;;;22.63;100.00
10706;BME280;5404;42.656;23.336;2022-07-29T06:19:05;94999.88;;;22.58;100.00
10706;BME280;5404;42.656;23.336;2022-07-29T06:21:30;94986.09;;;22.47;100.00
10706;BME280;5404;42.656;23.336;2022-07-29T06:23:56;94999.94;;;22.39;100.00
10706;BME280;5404;42.656;23.336;2022-07-29T06:26:21;95003.03;;;22.63;100.00
10706;BME280;5404;42.656;23.336;2022-07-29T06:28:48;95000.53;;;22.77;100.00
10706;BME280;5404;42.656;23.336;2022-07-29T06:31:13;94980.19;;;22.64;100.00
10706;BME280;5404;42.656;23.336;2022-07-29T06:33:39;94993.56;;;22.76;100.00
10706;BME280;5404;42.656;23.336;2022-07-29T06:36:05;94999.00;;;22.76;100.00
10706;BME280;5404;42.656;23.336;2022-07-29T06:38:32;94995.06;;;22.74;100.00
10706;BME280;5404;42.656;23.336;2022-07-29T06:40:58;94993.81;;;22.94;100.00
10706;BME280;5404;42.656;23.336;2022-07-29T06:43:34;94994.34;;;23.06;100.00
10706;BME280;5404;42.656;23.336;2022-07-29T06:46:04;94983.25;;;23.19;100.00
10706;BME280;5404;42.656;23.336;2022-07-29T06:48:31;94988.84;;;23.29;100.00
10706;BME280;5404;42.656;23.336;2022-07-29T06:50:57;94985.13;;;23.41;100.00
10706;BME280;5404;42.656;23.336;2022-07-29T06:53:23;94985.34;;;23.62;100.00
10706;BME280;5404;42.656;23.336;2022-07-29T06:55:48;94980.94;;;23.50;100.00
10706;BME280;5404;42.656;23.336;2022-07-29T06:58:14;94980.25;;;23.57;100.00
10706;BME280;5404;42.656;23.336;2022-07-29T07:00:41;94979.91;;;23.62;100.00
10706;BME280;5404;42.656;23.336;2022-07-29T07:03:07;94982.59;;;23.58;100.00
10706;BME280;5404;42.656;23.336;2022-07-29T07:05:32;94982.25;;;23.63;100.00
10706;BME280;5404;42.656;23.336;2022-07-29T07:07:58;94978.47;;;23.71;100.00
10706;BME280;5404;42.656;23.336;2022-07-29T07:10:24;94974.00;;;23.93;100.00
10706;BME280;5404;42.656;23.336;2022-07-29T07:12:49;94965.19;;;24.03;100.00
10706;BME280;5404;42.656;23.336;2022-07-29T07:15:15;94964.47;;;24.06;100.00
10706;BME280;5404;42.656;23.336;2022-07-29T07:17:40;94961.19;;;24.34;100.00
10706;BME280;5404;42.656;23.336;2022-07-29T07:20:06;94966.28;;;24.39;100.00
10706;BME280;5404;42.656;23.336;2022-07-29T07:22:31;94965.69;;;24.63;100.00
10706;BME280;5404;42.656;23.336;2022-07-29T07:24:57;94959.81;;;24.57;100.00
10706;BME280;5404;42.656;23.336;2022-07-29T07:27:22;94959.84;;;24.64;100.00
10706;BME280;5404;42.656;23.336;2022-07-29T07:29:48;94946.63;;;24.66;100.00
10706;BME280;5404;42.656;23.336;2022-07-29T07:32:13;94951.81;;;24.78;100.00
10706;BME280;5404;42.656;23.336;2022-07-29T07:34:42;94933.16;;;24.91;100.00
10706;BME280;5404;42.656;23.336;2022-07-29T07:37:07;94946.09;;;25.08;100.00
10706;BME280;5404;42.656;23.336;2022-07-29T07:39:33;94945.75;;;25.20;100.00
10706;BME280;5404;42.656;23.336;2022-07-29T07:41:59;94936.00;;;25.12;100.00
10706;BME280;5404;42.656;23.336;2022-07-29T07:44:24;94939.03;;;24.96;100.00
10706;BME280;5404;42.656;23.336;2022-07-29T07:46:50;94939.88;;;25.07;100.00
10706;BME280;5404;42.656;23.336;2022-07-29T07:49:15;94947.66;;;25.09;100.00
10706;BME280;5404;42.656;23.336;2022-07-29T07:51:41;94938.66;;;24.98;100.00
10706;BME280;5404;42.656;23.336;2022-07-29T07:54:06;94940.72;;;25.22;100.00
10706;BME280;5404;42.656;23.336;2022-07-29T07:56:31;94940.38;;;25.34;100.00
10706;BME280;5404;42.656;23.336;2022-07-29T07:58:57;94936.13;;;25.40;100.00
10706;BME280;5404;42.656;23.336;2022-07-29T08:01:22;94923.59;;;25.32;100.00
10706;BME280;5404;42.656;23.336;2022-07-29T08:03:49;94939.66;;;25.48;100.00
10706;BME280;5404;42.656;23.336;2022-07-29T08:06:15;94928.06;;;25.86;100.00
10706;BME280;5404;42.656;23.336;2022-07-29T08:08:40;94934.28;;;25.79;100.00
10706;BME280;5404;42.656;23.336;2022-07-29T08:11:06;94928.47;;;25.98;100.00
10706;BME280;5404;42.656;23.336;2022-07-29T08:13:32;94928.47;;;25.98;100.00
10706;BME280;5404;42.656;23.336;2022-07-29T08:15:58;94928.47;;;25.95;100.00
10706;BME280;5404;42.656;23.336;2022-07-29T08:18:29;94927.28;;;25.99;100.00
10706;BME280;5404;42.656;23.336;2022-07-29T08:20:55;94933.94;;;26.02;100.00
10706;BME280;5404;42.656;23.336;2022-07-29T08:23:21;94926.13;;;26.11;100.00
10706;BME280;5404;42.656;23.336;2022-07-29T08:25:49;94921.88;;;26.10;100.00
10706;BME280;5404;42.656;23.336;2022-07-29T08:28:14;94922.25;;;26.26;100.00
10706;BME280;5404;42.656;23.336;2022-07-29T08:30:40;94924.59;;;26.49;100.00
10706;BME280;5404;42.656;23.336;2022-07-29T08:33:06;94916.38;;;26.73;100.00
10706;BME280;5404;42.656;23.336;2022-07-29T08:35:31;94917.50;;;26.93;100.00
10706;BME280;5404;42.656;23.336;2022-07-29T08:37:57;94923.66;;;27.18;100.00
10706;BME280;5404;42.656;23.336;2022-07-29T08:40:23;94911.59;;;27.05;100.00
10706;BME280;5404;42.656;23.336;2022-07-29T08:42:49;94915.84;;;27.17;100.00
10706;BME280;5404;42.656;23.336;2022-07-29T08:45:15;94901.00;;;27.11;100.00
10706;BME280;5404;42.656;23.336;2022-07-29T08:47:41;94918.53;;;27.34;100.00
10706;BME280;5404;42.656;23.336;2022-07-29T08:50:09;94917.75;;;27.37;100.00
10706;BME280;5404;42.656;23.336;2022-07-29T08:52:39;94902.00;;;27.52;100.00
10706;BME280;5404;42.656;23.336;2022-07-29T08:55:06;94913.75;;;27.52;100.00
10706;BME280;5404;42.656;23.336;2022-07-29T08:57:33;94910.78;;;27.95;100.00
10706;BME280;5404;42.656;23.336;2022-07-29T09:00:01;94899.72;;;28.05;100.00
10706;BME280;5404;42.656;23.336;2022-07-29T09:02:28;94910.47;;;28.33;100.00
10706;BME280;5404;42.656;23.336;2022-07-29T09:04:56;94897.72;;;28.13;100.00
10706;BME280;5404;42.656;23.336;2022-07-29T09:07:23;94911.81;;;28.15;100.00
10706;BME280;5404;42.656;23.336;2022-07-29T09:09:48;94895.09;;;27.99;100.00
10706;BME280;5404;42.656;23.336;2022-07-29T09:12:14;94903.44;;;28.32;100.00
10706;BME280;5404;42.656;23.336;2022-07-29T09:14:40;94896.66;;;28.03;100.00
10706;BME280;5404;42.656;23.336;2022-07-29T09:17:07;94896.00;;;27.78;100.00
10706;BME280;5404;42.656;23.336;2022-07-29T09:19:34;94899.75;;;28.02;100.00
10706;BME280;5404;42.656;23.336;2022-07-29T09:22:05;94894.19;;;28.16;100.00
10706;BME280;5404;42.656;23.336;2022-07-29T09:24:43;94903.41;;;29.17;100.00
10706;BME280;5404;42.656;23.336;2022-07-29T09:27:29;94874.84;;;32.37;91.49
10706;BME280;5404;42.656;23.336;2022-07-29T09:30:04;94890.22;;;34.69;72.34
10706;BME280;5404;42.656;23.336;2022-07-29T09:32:31;94895.50;;;37.57;57.54
10706;BME280;5404;42.656;23.336;2022-07-29T09:37:42;94889.50;;;38.84;49.44
10706;BME280;5404;42.656;23.336;2022-07-29T09:40:16;94896.41;;;38.88;51.01
10706;BME280;5404;42.656;23.336;2022-07-29T09:42:42;94888.16;;;39.56;47.53
10706;BME280;5404;42.656;23.336;2022-07-29T09:45:08;94895.31;;;40.00;45.33
10706;BME280;5404;42.656;23.336;2022-07-29T09:50:06;94891.19;;;37.20;54.61
10706;BME280;5404;42.656;23.336;2022-07-29T09:52:45;94890.38;;;34.87;64.93
10706;BME280;5404;42.656;23.336;2022-07-29T09:55:11;94879.28;;;32.95;76.01
10706;BME280;5404;42.656;23.336;2022-07-29T09:57:37;94881.78;;;33.18;76.89
10706;BME280;5404;42.656;23.336;2022-07-29T10:00:17;94877.00;;;31.97;82.57
10706;BME280;5404;42.656;23.336;2022-07-29T10:02:44;94872.97;;;31.27;88.51
10706;BME280;5404;42.656;23.336;2022-07-29T10:05:21;94845.97;;;30.13;95.24
10706;BME280;5404;42.656;23.336;2022-07-29T10:07:50;94865.25;;;30.10;97.96
10706;BME280;5404;42.656;23.336;2022-07-29T10:10:28;94848.47;;;29.77;98.36
10706;BME280;5404;42.656;23.336;2022-07-29T10:13:05;94854.44;;;30.22;96.25
10706;BME280;5404;42.656;23.336;2022-07-29T10:15:33;94860.00;;;30.19;98.19
10706;BME280;5404;42.656;23.336;2022-07-29T10:18:02;94843.34;;;30.72;97.45
10706;BME280;5404;42.656;23.336;2022-07-29T10:20:27;94839.84;;;33.36;83.95
10706;BME280;5404;42.656;23.336;2022-07-29T10:22:54;94840.31;;;35.89;67.36
10706;BME280;5404;42.656;23.336;2022-07-29T10:25:21;94828.66;;;39.20;57.00
10706;BME280;5404;42.656;23.336;2022-07-29T10:27:48;94843.16;;;39.63;50.13
10706;BME280;5404;42.656;23.336;2022-07-29T10:30:16;94835.72;;;40.73;41.93
10706;BME280;5404;42.656;23.336;2022-07-29T10:44:17;94812.38;;;42.29;41.29
10706;BME280;5404;42.656;23.336;2022-07-29T10:46:43;94832.41;;;41.60;39.93
10706;BME280;5404;42.656;23.336;2022-07-29T10:49:17;94823.69;;;41.07;40.05
10706;BME280;5404;42.656;23.336;2022-07-29T10:52:10;94825.81;;;40.92;41.93
10706;BME280;5404;42.656;23.336;2022-07-29T10:57:28;94804.13;;;40.46;44.61
10706;BME280;5404;42.656;23.336;2022-07-29T11:05:16;94809.28;;;39.55;46.35
10706;BME280;5404;42.656;23.336;2022-07-29T11:10:37;94799.91;;;35.05;63.05
10706;BME280;5404;42.656;23.336;2022-07-29T11:13:04;94796.72;;;37.11;57.93
10706;BME280;5404;42.656;23.336;2022-07-29T11:15:56;94793.84;;;39.16;48.34
10706;BME280;5404;42.656;23.336;2022-07-29T11:18:22;94792.94;;;39.63;47.14
10706;BME280;5404;42.656;23.336;2022-07-29T11:20:51;94791.84;;;39.75;43.66
10706;BME280;5404;42.656;23.336;2022-07-29T11:23:32;94794.38;;;37.87;48.01
10706;BME280;5404;42.656;23.336;2022-07-29T11:34:30;94782.81;;;37.20;49.87
10706;BME280;5404;42.656;23.336;2022-07-29T11:39:32;94789.75;;;35.33;57.47
10706;BME280;5404;42.656;23.336;2022-07-29T11:44:58;94767.28;;;32.94;68.37
10706;BME280;5404;42.656;23.336;2022-07-29T11:47:25;94776.03;;;32.48;76.36
10706;BME280;5404;42.656;23.336;2022-07-29T11:49:51;94777.53;;;32.20;75.53
10706;BME280;5404;42.656;23.336;2022-07-29T11:52:18;94767.13;;;32.12;75.44
10706;BME280;5404;42.656;23.336;2022-07-29T11:54:44;94762.25;;;32.48;74.44
10706;BME280;5404;42.656;23.336;2022-07-29T11:57:12;94761.72;;;32.53;73.58
10706;BME280;5404;42.656;23.336;2022-07-29T11:59:40;94763.13;;;32.29;75.10
10706;BME280;5404;42.656;23.336;2022-07-29T12:02:10;94760.34;;;32.73;71.48
10706;BME280;5404;42.656;23.336;2022-07-29T12:07:17;94759.94;;;33.29;69.03
10706;BME280;5404;42.656;23.336;2022-07-29T12:10:02;94763.69;;;33.22;67.39
10706;BME280;5404;42.656;23.336;2022-07-29T12:12:28;94748.88;;;33.16;65.67
10706;BME280;5404;42.656;23.336;2022-07-29T12:14:54;94749.06;;;32.96;68.04
10706;BME280;5404;42.656;23.336;2022-07-29T12:17:34;94754.84;;;32.29;71.22
10706;BME280;5404;42.656;23.336;2022-07-29T12:20:04;94755.38;;;32.24;71.96
10706;BME280;5404;42.656;23.336;2022-07-29T12:22:32;94755.22;;;32.59;72.54
10706;BME280;5404;42.656;23.336;2022-07-29T12:25:03;94763.84;;;32.61;69.32
10706;BME280;5404;42.656;23.336;2022-07-29T12:27:29;94756.19;;;32.53;73.50
10706;BME280;5404;42.656;23.336;2022-07-29T12:30:09;94749.56;;;32.79;70.91
10706;BME280;5404;42.656;23.336;2022-07-29T12:35:07;94751.84;;;32.68;72.70
10706;BME280;5404;42.656;23.336;2022-07-29T12:37:34;94753.97;;;32.48;73.52
10706;BME280;5404;42.656;23.336;2022-07-29T12:40:02;94746.19;;;32.14;75.37
10706;BME280;5404;42.656;23.336;2022-07-29T12:42:28;94745.03;;;32.28;73.84
10706;BME280;5404;42.656;23.336;2022-07-29T12:44:53;94742.66;;;32.58;71.25
10706;BME280;5404;42.656;23.336;2022-07-29T12:47:19;94747.28;;;32.90;70.45
10706;BME280;5404;42.656;23.336;2022-07-29T12:49:46;94749.66;;;33.17;66.57
10706;BME280;5404;42.656;23.336;2022-07-29T12:52:32;94741.16;;;33.24;68.18
10706;BME280;5404;42.656;23.336;2022-07-29T12:54:58;94739.03;;;33.40;65.97
10706;BME280;5404;42.656;23.336;2022-07-29T12:57:24;94731.41;;;33.07;65.13
10706;BME280;5404;42.656;23.336;2022-07-29T13:00:11;94727.03;;;33.72;65.34
10706;BME280;5404;42.656;23.336;2022-07-29T13:02:39;94720.59;;;33.37;64.75
10706;BME280;5404;42.656;23.336;2022-07-29T13:05:06;94706.25;;;33.17;65.12
10706;BME280;5404;42.656;23.336;2022-07-29T13:07:35;94721.19;;;33.45;66.44
10706;BME280;5404;42.656;23.336;2022-07-29T13:10:15;94717.44;;;33.51;65.43
10706;BME280;5404;42.656;23.336;2022-07-29T13:13:14;94715.75;;;33.41;65.33
10706;BME280;5404;42.656;23.336;2022-07-29T13:15:42;94713.09;;;33.38;64.67
10706;BME280;5404;42.656;23.336;2022-07-29T13:18:31;94685.00;;;33.77;64.37
10706;BME280;5404;42.656;23.336;2022-07-29T13:21:10;94702.13;;;33.84;64.54
10706;BME280;5404;42.656;23.336;2022-07-29T13:23:36;94703.91;;;33.41;66.52
10706;BME280;5404;42.656;23.336;2022-07-29T13:26:06;94706.47;;;33.10;67.96
10706;BME280;5404;42.656;23.336;2022-07-29T13:28:32;94703.13;;;32.61;70.93
10706;BME280;5404;42.656;23.336;2022-07-29T13:30:58;94705.22;;;32.29;71.33
10706;BME280;5404;42.656;23.336;2022-07-29T13:33:23;94701.25;;;32.30;70.66
10706;BME280;5404;42.656;23.336;2022-07-29T13:35:49;94707.78;;;32.36;72.60
10706;BME280;5404;42.656;23.336;2022-07-29T13:38:14;94704.56;;;32.37;72.41
10706;BME280;5404;42.656;23.336;2022-07-29T13:40:41;94691.75;;;31.86;73.04
10706;BME280;5404;42.656;23.336;2022-07-29T13:43:09;94682.88;;;31.78;74.66
10706;BME280;5404;42.656;23.336;2022-07-29T13:45:35;94688.75;;;32.25;72.23
10706;BME280;5404;42.656;23.336;2022-07-29T13:48:01;94686.78;;;32.26;71.39
10706;BME280;5404;42.656;23.336;2022-07-29T13:50:26;94687.75;;;32.19;72.12